Aérodrome :
LOGIN :

S'inscrire | Disclaimer

   EN    FR    IT 

 










Légende :    VFR   VFR Marginal   IFR   IFR Intensif   IFR Très Intensif
Visi : 
Plafond : 
>= 8 km
>= 3000ft
5 à 8 km
1000 à 3000 ft
1500m à 5 km
500 à 1000 ft
800 à 1500m
200 à 500 ft
< 800m
< 200 ft
Symboles :   Orages  Brouillard  Fortes neiges  Fortes précipitations  Vent > 20 kt
SIGMETs :   Divers  Orages  Givrage  Turbulence  Onde Orograph.  Cendres Volcan.







- Altitude de l'aérodrome : 587 ft
- Code IATA : XCR
- Voir les cartes d'approche


LFOK - Chalons Vatry

DERNIER METAR :
  • 222200Z AUTO 21013KT 0750 0650 R10/1200U R28/0750N FZFG VV/// M01/M01 Q1000 TEMPO 0500 FZFG

METARs EXPIRÉS :
  • 222130Z AUTO 21012KT 0650 0600 R10/0900U R28/0750N FZFG VV/// M01/M01 Q1000 BECMG 5000 BR OVC003
  • 222100Z AUTO 21012KT 0600 0500 R10/0900U R28/0600N FZFG VV/// M01/M01 Q1001 BECMG 5000 BR OVC003
  • 222030Z AUTO 21010KT 0800 0650 R10/0900D R28/1100D FZFG VV/// M01/M01 Q1001 BECMG 5000 BR OVC003
  • 222000Z AUTO 22012KT 1300 0900 R10/1500D R28/1500D BCFG VV/// M01/M01 Q1002 BECMG 5000 BR OVC003
  • 221930Z AUTO 23012KT 5000 BR OVC003 M00/M00 Q1002 NOSIG

TAF AMD TAF LFOK
Valide du 22 à 22h jusqu'au 23 à 18h UTC


222218Z 2222/2318 21010KT 0600 FZFG VV///
TEMPO 2300/2318 SN
BECMG 2310/2312 34012KT
Pas de NOTAMs connus pour ce terrain.
1 SIGMET publié pour la FIR Paris (LFFF) :
 
Givrage fort avec pluie surfondue
LFFF SIGMET 1 VALID 221930/222300 LFPW
LFFF PARIS FIR/UIR SEV ICE (FZRA) FCST WI N5000 E00500 - N4930 E00600 - N4900 E00445 - N4830 E00530 - N4730 E00415 - N4715 E00345 - N5000 E00500 SFC/FL030 MOV E 15KT NC=



MET'MAP, la Météo Aéronautique d'un coup d'oeil ! - Copyright ORBIFLY Décembre 2007 - Disclaimer

ORBIFLY MET'MAP TEAM :

Programmation & Développement : Alexandra Zaïnal
Conception & Développement : Baudouin d'Aumeries
Co-Programmation & Développement : Marc-Olivier Méhu
Soutien technique & logistique : Manuel Goepfert

Contact : metmap@orbifly.com




SOURCES & CREDITS :

   NOAA